Time;durP1;ratioP1;P1;durP2;ratioP2;P2;SDS_P1;SDS_P2;PMS_P1;PMS_P2;Temp;Humidity;BMP_temperature;BMP_pressure;BME280_temperature;BME280_humidity;BME280_pressure;Samples;Min_cycle;Max_cycle;Signal;HPM_P1;HPM_P2
2022/06/28 00:00:22;;;;;;;2.23;1.60;;;18.60;99.90;;;;;;5032418;28;20457;-71
2022/06/28 00:02:48;;;;;;;1.90;1.80;;;18.70;99.90;;;;;;5027465;28;20199;-71
2022/06/28 00:05:13;;;;;;;2.10;1.90;;;18.50;99.90;;;;;;5027992;28;20441;-71
2022/06/28 00:07:39;;;;;;;3.53;2.00;;;18.40;99.90;;;;;;5027659;28;20214;-72
2022/06/28 00:10:07;;;;;;;2.40;1.67;;;18.40;99.90;;;;;;5029585;28;20330;-72
2022/06/28 00:12:32;;;;;;;1.90;1.80;;;18.50;99.90;;;;;;5032769;28;20340;-71
2022/06/28 00:17:43;;;;;;;6.27;1.87;;;18.40;99.90;;;;;;5028994;28;20253;-69
2022/06/28 00:20:10;;;;;;;1.70;1.60;;;18.30;99.90;;;;;;5028953;28;20409;-70
2022/06/28 00:22:35;;;;;;;2.10;1.53;;;18.40;99.90;;;;;;5011215;28;20414;-70
2022/06/28 00:25:01;;;;;;;2.00;1.90;;;18.40;99.90;;;;;;5027177;28;20420;-70
2022/06/28 00:27:27;;;;;;;2.40;2.00;;;18.50;99.90;;;;;;5027576;28;20210;-71
2022/06/28 00:29:52;;;;;;;2.33;2.13;;;18.50;99.90;;;;;;5022828;28;20187;-72
2022/06/28 00:32:18;;;;;;;2.40;2.00;;;18.50;99.90;;;;;;5026903;28;20198;-71
2022/06/28 00:34:44;;;;;;;2.30;1.90;;;18.50;99.90;;;;;;5027097;28;20229;-71
2022/06/28 00:37:10;;;;;;;2.37;1.50;;;18.40;99.90;;;;;;5027223;28;20245;-71
2022/06/28 00:39:35;;;;;;;2.40;2.13;;;18.40;99.90;;;;;;5016423;28;20433;-69
2022/06/28 00:42:01;;;;;;;2.70;1.70;;;18.40;99.90;;;;;;5030253;28;20203;-71
2022/06/28 00:44:27;;;;;;;1.83;1.70;;;18.40;99.90;;;;;;5032391;28;20192;-69
2022/06/28 00:46:53;;;;;;;2.03;1.83;;;18.40;99.90;;;;;;5030716;28;20699;-71
2022/06/28 00:49:20;;;;;;;2.13;1.93;;;18.50;99.90;;;;;;5033776;28;20190;-71
2022/06/28 00:51:45;;;;;;;2.83;1.80;;;18.30;99.90;;;;;;5018182;28;20930;-71
2022/06/28 00:54:12;;;;;;;1.87;1.50;;;18.20;99.90;;;;;;5035671;28;20433;-72
2022/06/28 00:56:37;;;;;;;4.10;1.97;;;18.10;99.90;;;;;;5036482;28;20210;-72
2022/06/28 00:59:03;;;;;;;2.60;1.70;;;18.00;99.90;;;;;;5036264;28;20421;-72
2022/06/28 01:01:30;;;;;;;2.77;1.70;;;18.10;99.90;;;;;;5034851;28;20206;-72
2022/06/28 01:03:55;;;;;;;2.50;2.10;;;18.00;99.90;;;;;;5034833;28;20186;-72
2022/06/28 01:06:21;;;;;;;2.70;2.20;;;18.10;99.90;;;;;;5033840;28;20470;-71
2022/06/28 01:08:47;;;;;;;2.20;1.90;;;17.90;99.90;;;;;;5034628;28;20242;-73
2022/06/28 01:11:21;;;;;;;2.53;1.53;;;17.90;99.90;;;;;;5023126;28;20190;-72
2022/06/28 01:13:52;;;;;;;3.13;1.60;;;18.00;99.90;;;;;;5034395;28;20417;-72
2022/06/28 01:16:18;;;;;;;2.53;1.47;;;18.00;99.90;;;;;;5035471;28;20964;-72
2022/06/28 01:18:44;;;;;;;2.33;1.80;;;18.10;99.90;;;;;;5034160;28;20418;-71
2022/06/28 01:21:13;;;;;;;2.67;2.03;;;18.10;99.90;;;;;;5033738;28;20461;-70
2022/06/28 01:23:40;;;;;;;1.37;1.27;;;18.10;99.90;;;;;;5033820;28;20178;-71
2022/06/28 01:26:05;;;;;;;1.67;1.57;;;18.20;99.90;;;;;;5032648;28;20432;-72
2022/06/28 01:28:32;;;;;;;5.03;1.60;;;18.20;99.90;;;;;;5032155;28;20414;-72
2022/06/28 01:30:58;;;;;;;3.10;1.70;;;18.20;99.90;;;;;;5034758;28;20209;-71
2022/06/28 01:33:24;;;;;;;2.33;1.57;;;18.20;99.90;;;;;;5032723;28;20424;-71
2022/06/28 01:35:49;;;;;;;2.83;1.77;;;18.20;99.90;;;;;;5032802;28;20997;-72
2022/06/28 01:38:15;;;;;;;2.20;1.87;;;18.10;99.90;;;;;;5013933;28;20209;-72
2022/06/28 01:40:45;;;;;;;1.97;1.70;;;18.20;99.90;;;;;;5014868;28;20203;-72
2022/06/28 01:43:13;;;;;;;1.90;1.47;;;18.30;99.90;;;;;;5032580;28;20187;-72
2022/06/28 01:45:40;;;;;;;1.90;1.80;;;18.20;99.90;;;;;;5031670;28;20421;-72
2022/06/28 01:48:06;;;;;;;1.60;1.50;;;18.30;99.90;;;;;;5032763;28;20481;-71
2022/06/28 01:50:32;;;;;;;1.57;1.43;;;18.40;99.90;;;;;;5031295;28;20429;-71
2022/06/28 01:52:57;;;;;;;1.70;1.60;;;18.40;99.90;;;;;;5030857;28;20432;-72
2022/06/28 01:55:23;;;;;;;2.87;1.60;;;18.40;99.90;;;;;;5031756;28;20856;-70
2022/06/28 01:57:49;;;;;;;2.43;1.97;;;18.50;99.90;;;;;;5014154;28;20215;-71
2022/06/28 02:00:15;;;;;;;1.70;1.57;;;18.50;99.90;;;;;;5024109;28;20233;-70
2022/06/28 02:02:42;;;;;;;1.83;1.73;;;18.60;99.90;;;;;;5032258;28;20496;-72
2022/06/28 02:05:08;;;;;;;2.27;2.07;;;18.60;99.90;;;;;;5033456;28;20486;-71
2022/06/28 02:07:33;;;;;;;3.00;1.97;;;18.60;99.90;;;;;;5025651;28;20470;-70
2022/06/28 02:09:59;;;;;;;2.80;1.80;;;18.60;99.90;;;;;;5030709;28;20954;-70
2022/06/28 02:12:28;;;;;;;4.00;1.80;;;18.50;99.90;;;;;;5029825;28;20186;-70
2022/06/28 02:14:57;;;;;;;4.00;1.73;;;18.50;99.90;;;;;;5030218;28;20425;-71
2022/06/28 02:17:24;;;;;;;2.10;1.90;;;18.50;99.90;;;;;;5029891;28;20446;-71
2022/06/28 02:19:50;;;;;;;2.20;2.00;;;18.50;99.90;;;;;;5030258;28;20902;-70
2022/06/28 02:22:15;;;;;;;2.13;1.93;;;18.40;99.90;;;;;;5029927;28;20961;-71
2022/06/28 02:24:41;;;;;;;2.50;2.13;;;18.30;99.90;;;;;;5030537;28;20422;-72
2022/06/28 02:27:06;;;;;;;2.73;2.53;;;18.30;99.90;;;;;;5030078;28;20203;-72
2022/06/28 02:29:32;;;;;;;4.50;1.67;;;18.30;99.90;;;;;;5031040;28;20187;-72
2022/06/28 02:31:58;;;;;;;1.83;1.73;;;18.30;99.90;;;;;;5035439;28;20636;-72
2022/06/28 02:42:36;;;;;;;2.13;1.90;;;17.70;99.90;;;;;;5030243;28;20456;-71
2022/06/28 02:45:02;;;;;;;4.33;2.50;;;17.60;99.90;;;;;;5016223;28;20456;-72
2022/06/28 02:47:28;;;;;;;2.73;1.90;;;17.70;99.90;;;;;;5030733;28;20195;-71
2022/06/28 02:49:53;;;;;;;2.30;1.87;;;17.70;99.90;;;;;;5034403;28;20177;-72
2022/06/28 02:52:19;;;;;;;2.20;2.00;;;17.70;99.90;;;;;;5034236;28;20191;-72
2022/06/28 02:54:44;;;;;;;2.40;2.00;;;17.70;99.90;;;;;;5034850;28;20183;-71
2022/06/28 02:57:10;;;;;;;2.67;1.97;;;17.60;99.90;;;;;;5040298;22;20250;-70
2022/06/28 02:59:35;;;;;;;3.77;2.37;;;17.60;99.90;;;;;;5024514;28;20179;-71
2022/06/28 03:02:01;;;;;;;2.47;2.17;;;17.60;99.90;;;;;;5024140;28;20286;-70
2022/06/28 03:04:27;;;;;;;2.00;1.90;;;17.60;99.90;;;;;;5024429;28;20178;-71
2022/06/28 03:06:52;;;;;;;2.50;2.30;;;17.60;99.90;;;;;;5024234;28;20206;-69
2022/06/28 03:09:18;;;;;;;2.80;2.60;;;17.50;99.90;;;;;;5024330;28;20258;-71
2022/06/28 03:11:43;;;;;;;2.87;2.07;;;17.40;99.90;;;;;;5023604;28;20189;-71
2022/06/28 03:14:09;;;;;;;2.80;1.97;;;17.40;99.90;;;;;;5006356;28;20209;-70
2022/06/28 03:16:34;;;;;;;2.63;2.33;;;17.50;99.90;;;;;;5024041;28;20345;-71
2022/06/28 03:19:00;;;;;;;3.13;2.70;;;17.50;99.90;;;;;;5024308;28;20699;-70
2022/06/28 03:21:25;;;;;;;2.70;2.47;;;17.50;99.90;;;;;;5024165;28;20199;-71
2022/06/28 03:23:51;;;;;;;3.63;2.90;;;17.50;99.90;;;;;;5023695;28;20274;-69
2022/06/28 03:26:17;;;;;;;2.70;2.50;;;17.50;99.90;;;;;;5023334;28;20292;-70
2022/06/28 03:28:42;;;;;;;3.23;2.40;;;17.40;99.90;;;;;;5023557;28;20175;-70
2022/06/28 03:31:08;;;;;;;2.50;2.30;;;17.30;99.90;;;;;;5023053;28;20692;-69
2022/06/28 03:33:33;;;;;;;4.83;2.80;;;17.20;99.90;;;;;;5023756;28;20284;-70
2022/06/28 03:35:59;;;;;;;2.80;2.60;;;17.20;99.90;;;;;;5023843;28;20221;-71
2022/06/28 03:38:25;;;;;;;1.70;1.60;;;17.40;99.90;;;;;;5023756;28;20179;-70
2022/06/28 03:40:50;;;;;;;2.57;2.37;;;17.50;99.90;;;;;;5023927;28;20199;-70
2022/06/28 03:43:16;;;;;;;1.90;1.80;;;17.60;99.90;;;;;;5023716;28;20186;-70
2022/06/28 03:45:41;;;;;;;2.87;2.20;;;17.70;99.90;;;;;;5023129;28;20207;-71
2022/06/28 03:48:07;;;;;;;2.90;2.30;;;17.80;99.90;;;;;;5023706;28;20179;-69
2022/06/28 03:50:33;;;;;;;2.50;2.17;;;17.80;99.90;;;;;;5005985;28;20206;-70
2022/06/28 03:52:58;;;;;;;2.60;2.30;;;17.80;99.90;;;;;;5023757;28;20221;-70
2022/06/28 03:55:24;;;;;;;2.87;2.10;;;17.80;99.90;;;;;;5023677;28;20647;-71
2022/06/28 03:57:50;;;;;;;2.47;2.27;;;17.90;99.90;;;;;;5022916;28;20191;-70
2022/06/28 04:00:15;;;;;;;2.67;2.47;;;17.90;99.90;;;;;;5022766;28;20179;-69
2022/06/28 04:02:42;;;;;;;2.80;2.33;;;17.90;99.90;;;;;;5023642;28;20654;-70
2022/06/28 04:05:07;;;;;;;2.30;2.10;;;17.90;99.90;;;;;;5022131;28;20183;-70
2022/06/28 04:07:33;;;;;;;2.70;2.10;;;17.90;99.90;;;;;;5023494;28;20442;-71
2022/06/28 04:09:58;;;;;;;4.40;2.33;;;17.90;99.90;;;;;;5004949;28;20273;-70
2022/06/28 04:12:24;;;;;;;2.10;1.60;;;18.00;99.90;;;;;;5023546;28;20202;-70
2022/06/28 04:14:50;;;;;;;2.10;1.97;;;18.10;99.90;;;;;;5022730;28;20187;-70
2022/06/28 04:17:15;;;;;;;2.10;1.60;;;18.20;99.90;;;;;;5023708;28;20203;-71
2022/06/28 04:19:41;;;;;;;2.50;1.90;;;18.30;99.90;;;;;;5022386;28;20187;-70
2022/06/28 04:22:06;;;;;;;2.23;2.00;;;18.40;99.90;;;;;;5023226;28;20203;-70
2022/06/28 04:24:32;;;;;;;2.83;2.43;;;18.30;99.90;;;;;;5026116;28;20191;-70
2022/06/28 04:26:58;;;;;;;2.00;1.90;;;18.40;99.90;;;;;;5027522;28;20203;-71
2022/06/28 04:29:23;;;;;;;3.83;2.50;;;18.60;99.90;;;;;;5026605;28;20195;-69
2022/06/28 04:31:49;;;;;;;2.10;1.87;;;18.70;99.90;;;;;;5026722;28;20661;-69
2022/06/28 04:34:14;;;;;;;2.27;2.17;;;18.70;99.90;;;;;;5027066;28;20187;-70
2022/06/28 04:36:40;;;;;;;3.50;2.10;;;18.50;99.90;;;;;;5008529;28;20218;-69
2022/06/28 04:39:06;;;;;;;3.13;1.80;;;18.40;99.90;;;;;;5027041;28;20183;-70
2022/06/28 04:41:31;;;;;;;6.17;3.33;;;18.50;99.90;;;;;;5026575;28;20620;-70
2022/06/28 04:43:57;;;;;;;2.70;2.43;;;18.70;99.90;;;;;;5027083;28;20267;-71
2022/06/28 04:46:23;;;;;;;2.20;1.97;;;18.90;99.90;;;;;;5026651;28;20433;-70
2022/06/28 04:48:49;;;;;;;2.37;2.17;;;19.00;99.90;;;;;;5026800;28;20670;-70
2022/06/28 04:51:15;;;;;;;2.37;2.17;;;19.10;99.90;;;;;;5026399;28;20457;-70
2022/06/28 04:53:42;;;;;;;2.50;2.30;;;19.00;99.90;;;;;;5026783;28;20434;-70
2022/06/28 04:56:09;;;;;;;4.10;2.90;;;18.90;99.90;;;;;;5026645;28;20453;-70
2022/06/28 04:58:35;;;;;;;3.40;2.93;;;18.90;99.90;;;;;;5026409;28;20422;-71
2022/06/28 05:01:01;;;;;;;3.60;3.30;;;19.10;99.90;;;;;;5026429;28;20476;-72
2022/06/28 05:03:26;;;;;;;4.03;3.73;;;19.20;99.90;;;;;;5026450;28;20199;-70
2022/06/28 05:05:53;;;;;;;3.60;3.30;;;19.20;99.90;;;;;;5026007;28;20480;-70
2022/06/28 05:08:18;;;;;;;8.30;5.47;;;19.20;99.90;;;;;;5025561;28;20663;-70
2022/06/28 05:10:44;;;;;;;4.60;3.77;;;19.30;99.90;;;;;;5026349;28;20414;-70
2022/06/28 05:13:10;;;;;;;5.20;4.47;;;19.20;99.90;;;;;;5026434;28;20789;-70
2022/06/28 05:15:36;;;;;;;4.73;3.77;;;19.00;99.90;;;;;;5026084;28;20504;-69
2022/06/28 05:18:02;;;;;;;5.23;4.63;;;18.90;99.90;;;;;;5026400;28;20834;-68
2022/06/28 05:20:28;;;;;;;5.30;4.80;;;18.90;99.90;;;;;;5025792;28;20225;-70
2022/06/28 05:22:54;;;;;;;5.63;4.50;;;18.50;99.90;;;;;;5026300;28;20410;-70
2022/06/28 05:25:19;;;;;;;5.20;4.80;;;18.40;99.90;;;;;;5025988;28;20175;-71
2022/06/28 05:27:45;;;;;;;7.10;5.37;;;18.40;99.90;;;;;;5008436;28;20198;-70
2022/06/28 05:30:11;;;;;;;6.90;5.90;;;18.40;99.90;;;;;;5025990;28;20179;-69
2022/06/28 05:32:37;;;;;;;7.33;6.63;;;18.40;99.90;;;;;;5025707;28;20233;-69
2022/06/28 05:35:04;;;;;;;7.10;6.50;;;18.50;99.90;;;;;;5025685;28;20425;-70
2022/06/28 05:37:29;;;;;;;7.27;6.77;;;18.60;99.90;;;;;;5025021;28;21198;-71
2022/06/28 05:39:55;;;;;;;8.23;6.30;;;18.90;99.90;;;;;;5025683;28;20437;-70
2022/06/28 05:42:20;;;;;;;8.17;6.90;;;19.00;99.90;;;;;;5025749;28;20199;-70
2022/06/28 05:44:46;;;;;;;7.20;6.57;;;18.70;99.90;;;;;;5025780;28;20178;-71
2022/06/28 05:47:12;;;;;;;8.50;7.70;;;18.40;99.90;;;;;;5025546;28;20271;-70
2022/06/28 05:49:38;;;;;;;7.40;6.70;;;18.40;99.90;;;;;;5025264;28;20175;-70
2022/06/28 05:52:05;;;;;;;8.30;7.50;;;18.60;99.90;;;;;;5025752;28;20544;-70
2022/06/28 05:54:31;;;;;;;7.87;7.07;;;18.70;99.90;;;;;;5025606;28;20417;-70
2022/06/28 05:56:57;;;;;;;7.80;7.00;;;18.70;99.90;;;;;;5025538;28;20519;-70
2022/06/28 05:59:23;;;;;;;8.83;7.60;;;18.60;99.90;;;;;;5025269;28;20266;-68
2022/06/28 06:01:49;;;;;;;8.37;7.67;;;18.80;99.90;;;;;;5025675;28;20230;-70
2022/06/28 06:04:14;;;;;;;8.50;7.80;;;18.80;99.90;;;;;;5025458;28;20445;-69
2022/06/28 06:06:40;;;;;;;7.20;6.60;;;19.10;99.90;;;;;;5024731;28;20201;-70
2022/06/28 06:09:06;;;;;;;7.03;6.43;;;19.10;99.90;;;;;;5025282;28;20889;-70
2022/06/28 06:11:32;;;;;;;8.10;7.40;;;19.30;99.90;;;;;;5025346;28;20209;-71
2022/06/28 06:13:58;;;;;;;8.57;7.87;;;19.60;99.90;;;;;;5025242;28;20215;-71
2022/06/28 06:16:23;;;;;;;8.97;8.20;;;19.40;99.90;;;;;;5024809;28;20210;-71
2022/06/28 06:18:49;;;;;;;7.47;6.90;;;19.50;99.90;;;;;;5025055;28;20417;-71
2022/06/28 06:21:15;;;;;;;9.03;8.33;;;19.50;99.90;;;;;;5024468;28;20607;-70
2022/06/28 06:23:40;;;;;;;7.43;6.80;;;19.10;99.90;;;;;;5025192;28;20168;-71
2022/06/28 06:26:06;;;;;;;9.67;8.80;;;19.00;99.90;;;;;;5024509;28;20188;-70
2022/06/28 06:28:34;;;;;;;7.87;7.20;;;19.30;99.90;;;;;;5024886;28;20179;-70
2022/06/28 06:31:00;;;;;;;8.00;7.30;;;19.20;99.90;;;;;;5025079;28;20182;-69
2022/06/28 06:33:26;;;;;;;8.07;7.30;;;19.30;99.90;;;;;;5024515;28;20410;-70
2022/06/28 06:35:51;;;;;;;7.10;6.50;;;19.60;99.90;;;;;;5024486;28;20199;-69
2022/06/28 06:38:17;;;;;;;8.30;7.60;;;20.00;99.90;;;;;;5024714;28;20245;-70
2022/06/28 06:40:42;;;;;;;8.13;7.47;;;19.70;99.90;;;;;;5024528;28;20203;-70
2022/06/28 06:43:08;;;;;;;9.30;8.57;;;19.40;99.90;;;;;;5024390;28;20171;-70
2022/06/28 06:45:34;;;;;;;7.87;7.10;;;19.40;99.90;;;;;;5024227;28;20675;-71
2022/06/28 06:47:59;;;;;;;7.53;6.93;;;19.90;99.90;;;;;;5024153;28;20183;-70
2022/06/28 06:50:25;;;;;;;7.57;6.90;;;19.90;99.90;;;;;;5024110;28;20179;-70
2022/06/28 06:52:51;;;;;;;8.27;7.57;;;20.10;99.90;;;;;;5024442;28;20546;-71
2022/06/28 06:55:16;;;;;;;8.40;7.70;;;20.30;99.90;;;;;;5024385;28;20548;-70
2022/06/28 06:57:42;;;;;;;9.10;8.10;;;20.30;99.90;;;;;;5024041;28;20318;-69
2022/06/28 07:00:09;;;;;;;9.13;8.33;;;20.20;99.90;;;;;;5024574;28;20179;-70
2022/06/28 07:02:42;;;;;;;9.93;8.93;;;20.30;99.90;;;;;;5024475;28;20986;-70
2022/06/28 07:05:09;;;;;;;9.00;8.30;;;20.20;99.90;;;;;;5023092;28;20426;-70
2022/06/28 07:07:34;;;;;;;10.13;9.33;;;20.10;99.90;;;;;;5024259;28;20934;-70
2022/06/28 07:10:02;;;;;;;8.90;8.20;;;20.00;99.90;;;;;;5024096;28;20417;-70
2022/06/28 07:12:28;;;;;;;10.20;9.40;;;20.00;99.90;;;;;;5024175;28;20182;-71
2022/06/28 07:14:53;;;;;;;11.40;10.50;;;19.70;99.90;;;;;;5024275;28;20935;-70
2022/06/28 07:17:19;;;;;;;10.80;10.00;;;19.50;99.90;;;;;;5023799;28;20393;-71
2022/06/28 07:19:45;;;;;;;12.00;10.70;;;19.30;99.90;;;;;;5024086;28;20171;-70
2022/06/28 07:22:10;;;;;;;10.90;10.00;;;19.50;99.90;;;;;;5023599;28;20203;-70
2022/06/28 07:24:36;;;;;;;12.47;11.47;;;19.20;99.90;;;;;;5024119;28;20183;-70
2022/06/28 07:27:02;;;;;;;9.50;8.70;;;19.20;99.90;;;;;;5023794;28;20199;-70
2022/06/28 07:29:27;;;;;;;9.43;8.67;;;19.40;99.90;;;;;;5024065;28;20179;-70
2022/06/28 07:31:53;;;;;;;9.47;8.70;;;19.50;99.90;;;;;;5023688;28;20198;-69
2022/06/28 07:34:18;;;;;;;10.50;9.63;;;19.40;99.90;;;;;;5024027;28;20237;-70
2022/06/28 07:36:44;;;;;;;9.93;8.73;;;19.40;99.90;;;;;;5023232;28;20262;-70
2022/06/28 07:39:10;;;;;;;9.47;8.70;;;19.70;99.90;;;;;;5023990;28;20179;-71
2022/06/28 07:41:36;;;;;;;9.70;8.90;;;19.90;99.90;;;;;;5023548;28;20464;-71
2022/06/28 07:44:02;;;;;;;10.17;9.30;;;20.20;99.90;;;;;;5024215;28;20298;-71
2022/06/28 07:46:27;;;;;;;10.17;9.17;;;20.20;99.90;;;;;;5023690;28;20694;-69
2022/06/28 07:48:54;;;;;;;8.03;7.40;;;20.30;99.90;;;;;;5023743;28;20418;-69
2022/06/28 07:54:04;;;;;;;9.43;8.63;;;20.40;99.90;;;;;;5024184;28;20455;-69
2022/06/28 07:56:30;;;;;;;8.63;7.93;;;20.10;99.90;;;;;;5023846;28;20461;-70
2022/06/28 07:58:56;;;;;;;8.87;8.07;;;19.70;99.90;;;;;;5025525;28;20544;-70
2022/06/28 08:01:22;;;;;;;8.20;7.40;;;19.50;99.90;;;;;;5010105;28;20994;-69
2022/06/28 08:03:48;;;;;;;9.43;8.57;;;19.50;99.90;;;;;;5027711;28;20439;-69
2022/06/28 08:06:14;;;;;;;8.50;7.90;;;19.90;99.90;;;;;;5027284;28;20441;-69
2022/06/28 08:08:40;;;;;;;9.60;8.80;;;20.20;99.90;;;;;;5027676;28;20183;-70
2022/06/28 08:11:06;;;;;;;9.03;8.20;;;20.50;99.90;;;;;;5027318;28;20252;-70
2022/06/28 08:13:31;;;;;;;8.93;8.03;;;20.60;99.90;;;;;;5027640;28;20417;-69
2022/06/28 08:15:59;;;;;;;8.73;8.10;;;20.90;99.90;;;;;;5027071;28;20199;-69
2022/06/28 08:18:25;;;;;;;7.03;6.50;;;21.40;99.90;;;;;;5027310;28;20171;-71
2022/06/28 08:20:51;;;;;;;7.83;7.10;;;21.90;99.90;;;;;;5026807;28;20499;-69
2022/06/28 08:23:16;;;;;;;8.07;7.40;;;21.70;99.90;;;;;;5027088;28;20932;-69
2022/06/28 08:25:42;;;;;;;6.97;6.47;;;21.50;99.90;;;;;;5009338;28;20224;-69
2022/06/28 08:28:09;;;;;;;6.93;6.43;;;21.70;99.90;;;;;;5027054;28;20189;-69
2022/06/28 08:30:36;;;;;;;11.30;6.30;;;21.80;99.90;;;;;;5026563;28;20426;-69
2022/06/28 08:33:01;;;;;;;5.90;5.40;;;21.70;99.90;;;;;;5026936;28;20441;-69
2022/06/28 08:35:27;;;;;;;5.80;5.30;;;21.70;99.90;;;;;;5026319;28;20460;-69
2022/06/28 08:37:53;;;;;;;5.53;5.13;;;21.40;99.90;;;;;;5027257;28;20648;-69
2022/06/28 08:40:21;;;;;;;5.20;4.80;;;21.80;99.90;;;;;;5026831;28;20183;-70
2022/06/28 08:42:54;;;;;;;5.90;5.40;;;22.10;99.90;;;;;;5026941;28;20176;-69
2022/06/28 08:45:21;;;;;;;5.70;5.20;;;22.30;99.90;;;;;;5026933;28;20412;-69
2022/06/28 08:47:48;;;;;;;5.80;5.30;;;22.40;99.90;;;;;;5026611;28;21039;-70
2022/06/28 08:50:29;;;;;;;5.83;5.33;;;22.50;99.90;;;;;;5026321;28;20782;-69
2022/06/28 08:52:57;;;;;;;5.10;4.80;;;22.60;99.90;;;;;;5026814;28;20509;-70
2022/06/28 08:55:23;;;;;;;6.70;5.70;;;22.90;99.90;;;;;;5008543;28;20449;-70
2022/06/28 08:57:49;;;;;;;6.00;4.97;;;22.80;99.90;;;;;;5026672;28;20536;-70
2022/06/28 09:00:14;;;;;;;5.43;4.93;;;22.50;99.90;;;;;;5026746;28;20509;-69
2022/06/28 09:02:40;;;;;;;5.67;5.17;;;22.00;99.90;;;;;;5026350;28;20172;-69
2022/06/28 09:05:06;;;;;;;4.93;4.53;;;21.80;99.90;;;;;;5008379;28;20577;-70
2022/06/28 09:07:32;;;;;;;4.87;4.47;;;21.80;99.90;;;;;;5025947;28;20207;-70
2022/06/28 09:09:58;;;;;;;5.03;4.63;;;21.90;99.90;;;;;;5026019;28;20418;-70
2022/06/28 09:12:23;;;;;;;4.97;4.47;;;22.10;99.90;;;;;;5026244;28;20723;-69
2022/06/28 09:14:49;;;;;;;4.73;4.37;;;22.30;99.90;;;;;;5008664;28;20191;-70
2022/06/28 09:17:27;;;;;;;5.33;4.87;;;22.50;99.90;;;;;;5026099;28;20209;-69
2022/06/28 09:20:03;;;;;;;8.90;4.47;;;22.40;99.90;;;;;;5026016;28;20182;-69
2022/06/28 09:22:36;;;;;;;3.83;3.53;;;22.50;99.90;;;;;;5026013;28;20445;-69
2022/06/28 09:25:09;;;;;;;4.57;4.17;;;22.90;99.90;;;;;;5025983;28;20915;-69
2022/06/28 09:27:37;;;;;;;4.40;4.10;;;23.20;99.90;;;;;;5026115;28;20919;-69
2022/06/28 09:30:05;;;;;;;5.23;3.97;;;23.00;99.90;;;;;;5025981;28;20831;-70
2022/06/28 09:32:33;;;;;;;3.73;3.53;;;22.70;99.90;;;;;;5026056;28;20429;-69
2022/06/28 09:35:01;;;;;;;3.63;3.33;;;22.90;99.90;;;;;;5025757;28;20915;-70
2022/06/28 09:37:39;;;;;;;4.10;3.80;;;23.00;99.90;;;;;;5025529;28;20550;-70
2022/06/28 09:40:14;;;;;;;4.50;3.10;;;22.90;99.90;;;;;;5008064;28;20464;-70
2022/06/28 09:42:41;;;;;;;3.60;3.30;;;23.20;99.90;;;;;;5025519;28;21579;-69
2022/06/28 09:45:08;;;;;;;3.60;3.03;;;22.80;99.90;;;;;;5025809;28;20453;-70
2022/06/28 09:47:34;;;;;;;3.83;3.47;;;22.70;99.90;;;;;;5025611;28;20513;-70
2022/06/28 09:50:00;;;;;;;4.27;3.87;;;22.80;99.90;;;;;;5025491;28;20426;-70
2022/06/28 09:52:29;;;;;;;4.07;3.40;;;22.70;99.90;;;;;;5025358;28;20192;-70
2022/06/28 09:54:56;;;;;;;2.90;2.70;;;22.70;99.90;;;;;;5025535;28;20449;-70
2022/06/28 09:57:23;;;;;;;2.97;2.77;;;23.10;99.90;;;;;;5024998;28;20472;-70
2022/06/28 09:59:54;;;;;;;3.27;2.90;;;23.50;99.90;;;;;;5025522;28;20433;-69
2022/06/28 10:02:19;;;;;;;3.57;3.37;;;23.50;99.90;;;;;;5025704;28;20786;-69
2022/06/28 10:04:46;;;;;;;3.27;2.97;;;23.60;99.90;;;;;;5025160;28;20448;-69
2022/06/28 10:07:12;;;;;;;4.90;2.73;;;23.70;99.90;;;;;;5024548;28;20207;-69
2022/06/28 10:09:38;;;;;;;3.57;3.33;;;23.90;99.90;;;;;;5025108;28;20488;-70
2022/06/28 10:15:04;;;;;;;2.77;2.50;;;24.10;99.90;;;;;;5025563;28;20420;-70
2022/06/28 10:17:55;;;;;;;3.00;2.80;;;23.90;99.90;;;;;;5025257;28;20579;-71
2022/06/28 10:20:34;;;;;;;2.60;2.40;;;24.00;99.90;;;;;;5024275;28;20409;-69
2022/06/28 10:23:24;;;;;;;2.60;2.40;;;23.80;99.90;;;;;;5024960;28;20926;-70
2022/06/28 10:26:03;;;;;;;3.27;2.87;;;23.80;99.90;;;;;;5024568;28;20450;-70
2022/06/28 10:28:34;;;;;;;4.43;2.73;;;23.30;99.90;;;;;;5025016;28;20476;-70
2022/06/28 10:31:24;;;;;;;2.97;2.70;;;23.20;99.90;;;;;;5024562;28;20406;-69
2022/06/28 10:34:01;;;;;;;3.43;2.53;;;23.50;99.90;;;;;;5025332;28;20429;-70
2022/06/28 10:36:40;;;;;;;2.83;2.63;;;23.50;99.90;;;;;;5024608;28;20452;-69
2022/06/28 10:39:09;;;;;;;2.27;2.17;;;23.90;99.90;;;;;;5024791;28;20773;-69
2022/06/28 10:41:37;;;;;;;3.80;2.57;;;23.70;99.90;;;;;;5024531;28;20445;-70
2022/06/28 10:44:08;;;;;;;2.80;2.60;;;23.60;99.90;;;;;;5024858;28;20418;-68
2022/06/28 10:46:34;;;;;;;2.53;2.33;;;23.70;99.90;;;;;;5024381;28;20469;-69
2022/06/28 10:49:03;;;;;;;2.90;2.17;;;24.30;99.90;;;;;;5024742;28;20499;-70
2022/06/28 10:51:29;;;;;;;2.43;2.23;;;24.50;99.90;;;;;;5024348;28;20211;-70
2022/06/28 10:54:01;;;;;;;2.83;2.47;;;24.80;99.90;;;;;;5024550;28;20941;-69
2022/06/28 10:56:41;;;;;;;2.53;2.37;;;24.90;99.90;;;;;;5023979;28;20446;-69
2022/06/28 10:59:15;;;;;;;4.23;2.50;;;24.30;99.90;;;;;;5024611;28;20417;-69
2022/06/28 11:01:44;;;;;;;2.40;2.20;;;24.20;99.90;;;;;;5024434;28;20438;-70
2022/06/28 11:04:18;;;;;;;2.90;2.43;;;24.70;99.90;;;;;;5024489;28;20897;-70
2022/06/28 11:07:21;;;;;;;3.67;2.90;;;24.60;99.90;;;;;;5023816;28;20425;-70
2022/06/28 11:09:56;;;;;;;2.97;2.77;;;24.50;99.90;;;;;;5024238;28;20410;-70
2022/06/28 11:12:28;;;;;;;2.50;2.30;;;25.10;99.90;;;;;;5024072;28;20421;-68
2022/06/28 11:14:59;;;;;;;4.70;2.43;;;25.40;99.90;;;;;;5024121;28;20410;-71
2022/06/28 11:17:29;;;;;;;2.60;2.40;;;25.70;99.90;;;;;;5023951;28;20426;-70
2022/06/28 11:20:02;;;;;;;4.60;2.37;;;25.80;99.90;;;;;;5024395;28;20501;-71
2022/06/28 11:22:37;;;;;;;5.93;2.37;;;25.20;99.90;;;;;;5022636;28;20450;-70
2022/06/28 11:25:06;;;;;;;2.30;2.10;;;24.80;99.90;;;;;;5023787;28;20420;-70
2022/06/28 11:27:32;;;;;;;1.90;1.80;;;25.20;99.90;;;;;;5047844;22;20474;-70
2022/06/28 11:30:01;;;;;;;2.47;1.73;;;25.30;99.90;;;;;;5023715;28;20930;-69
2022/06/28 11:32:29;;;;;;;2.10;1.83;;;25.50;99.90;;;;;;5022389;28;20430;-68
2022/06/28 11:35:01;;;;;;;2.13;1.90;;;24.80;99.90;;;;;;5023478;28;20480;-68
2022/06/28 11:37:28;;;;;;;2.47;1.90;;;25.30;99.90;;;;;;5023195;28;20473;-69
2022/06/28 11:39:56;;;;;;;2.67;1.90;;;25.70;99.90;;;;;;5023165;28;20504;-69
2022/06/28 11:42:22;;;;;;;2.17;1.80;;;26.20;99.90;;;;;;5022478;28;20477;-69
2022/06/28 11:44:49;;;;;;;2.00;1.70;;;25.60;99.90;;;;;;5023505;28;20434;-69
2022/06/28 11:47:16;;;;;;;1.73;1.50;;;25.70;99.90;;;;;;5023086;28;20227;-69
2022/06/28 11:49:43;;;;;;;1.67;1.47;;;25.60;99.90;;;;;;5023155;28;20423;-68
2022/06/28 11:52:17;;;;;;;1.67;1.50;;;25.40;99.90;;;;;;5023574;28;20422;-70
2022/06/28 11:54:44;;;;;;;1.50;1.40;;;25.70;99.90;;;;;;5023630;28;20398;-70
2022/06/28 11:57:15;;;;;;;2.10;1.80;;;25.80;99.90;;;;;;5023691;28;20442;-70
2022/06/28 12:00:07;;;;;;;1.50;1.40;;;25.60;99.90;;;;;;5022453;28;21098;-71
2022/06/28 12:03:00;;;;;;;2.43;1.60;;;25.40;99.90;;;;;;5019471;28;20464;-70
2022/06/28 12:05:34;;;;;;;3.10;1.50;;;25.70;99.90;;;;;;5020094;28;20422;-70
2022/06/28 12:08:01;;;;;;;2.07;1.60;;;26.10;99.90;;;;;;5022980;28;20426;-69
2022/06/28 12:10:30;;;;;;;2.17;1.67;;;26.70;99.90;;;;;;5023193;28;20414;-68
2022/06/28 12:12:58;;;;;;;1.70;1.60;;;27.10;99.90;;;;;;5023148;28;20842;-69
2022/06/28 12:15:32;;;;;;;1.83;1.53;;;26.90;99.70;;;;;;5023168;28;20935;-70
2022/06/28 12:18:04;;;;;;;2.03;1.60;;;26.50;99.90;;;;;;5005383;28;20472;-69
2022/06/28 12:20:31;;;;;;;3.10;1.70;;;25.60;99.90;;;;;;5005416;28;20780;-69
2022/06/28 12:23:03;;;;;;;1.83;1.60;;;25.60;99.90;;;;;;5023119;28;20735;-69
2022/06/28 12:25:29;;;;;;;2.30;1.50;;;26.10;99.90;;;;;;5022860;28;20487;-71
2022/06/28 12:27:55;;;;;;;2.07;1.60;;;26.30;99.90;;;;;;5023054;28;20778;-68
2022/06/28 12:30:22;;;;;;;1.93;1.40;;;27.00;99.90;;;;;;5022663;28;20438;-70
2022/06/28 12:32:48;;;;;;;2.70;1.40;;;26.50;99.90;;;;;;5022863;28;20726;-68
2022/06/28 12:35:15;;;;;;;2.70;1.50;;;26.70;99.90;;;;;;5022577;28;20453;-69
2022/06/28 12:37:42;;;;;;;2.70;1.50;;;27.20;99.90;;;;;;5022618;28;20481;-70
2022/06/28 12:40:08;;;;;;;3.30;1.50;;;27.40;99.80;;;;;;5005056;28;20449;-70
2022/06/28 12:42:34;;;;;;;1.83;1.50;;;28.20;98.70;;;;;;5005077;28;20457;-70
2022/06/28 12:45:01;;;;;;;9.10;1.70;;;27.50;98.80;;;;;;5024683;28;20406;-72
2022/06/28 12:47:28;;;;;;;1.50;1.40;;;26.30;99.90;;;;;;5026801;28;20515;-69
2022/06/28 12:49:54;;;;;;;1.60;1.43;;;26.10;99.90;;;;;;5026529;28;20402;-68
2022/06/28 12:52:20;;;;;;;1.60;1.50;;;26.00;99.90;;;;;;5026740;28;20420;-70
2022/06/28 12:54:45;;;;;;;1.70;1.60;;;25.60;99.90;;;;;;5026261;28;20210;-68
2022/06/28 12:57:11;;;;;;;1.40;1.30;;;25.60;99.90;;;;;;5026834;28;20225;-68
2022/06/28 12:59:36;;;;;;;2.17;1.73;;;25.70;99.90;;;;;;5026501;28;20222;-68
2022/06/28 13:02:02;;;;;;;6.60;1.57;;;25.70;99.90;;;;;;5026048;28;20234;-69